createdAt,value
2022-11-25T00:01:17.249Z,59.33
2022-11-25T00:03:44.603Z,59.14
2022-11-25T00:06:17.682Z,59.16
2022-11-25T00:08:45.183Z,59.10
2022-11-25T00:11:12.569Z,59.07
2022-11-25T00:13:39.476Z,59.35
2022-11-25T00:16:10.993Z,59.13
2022-11-25T00:18:38.083Z,59.30
2022-11-25T00:21:06.712Z,59.20
2022-11-25T00:23:33.635Z,59.18
2022-11-25T00:26:15.354Z,58.94
2022-11-25T00:28:44.065Z,59.29
2022-11-25T00:31:22.062Z,58.93
2022-11-25T00:33:49.368Z,59.30
2022-11-25T00:36:24.127Z,59.23
2022-11-25T00:38:55.077Z,59.04
2022-11-25T00:41:40.802Z,59.13
2022-11-25T00:44:28.444Z,59.12
2022-11-25T00:46:55.592Z,59.28
2022-11-25T00:49:22.403Z,59.05
2022-11-25T00:51:49.451Z,59.19
2022-11-25T00:54:16.282Z,59.17
2022-11-25T00:56:43.305Z,59.21
2022-11-25T00:59:10.023Z,59.03
2022-11-25T01:01:37.265Z,59.12
2022-11-25T01:04:04.335Z,58.93
2022-11-25T01:06:31.343Z,59.11
2022-11-25T01:08:58.088Z,59.08
2022-11-25T01:11:25.167Z,59.01
2022-11-25T01:14:00.640Z,59.24
2022-11-25T01:16:28.828Z,59.21
2022-11-25T01:18:55.670Z,59.12
2022-11-25T01:21:27.743Z,59.09
2022-11-25T01:23:54.487Z,59.15
2022-11-25T01:26:23.066Z,59.17
2022-11-25T01:28:52.978Z,59.17
2022-11-25T01:31:20.906Z,59.07
2022-11-25T01:33:48.548Z,59.07
2022-11-25T01:36:16.614Z,59.05
2022-11-25T01:38:43.488Z,59.13
2022-11-25T01:41:13.188Z,59.13
2022-11-25T01:43:40.093Z,59.06
2022-11-25T01:46:28.147Z,59.28
2022-11-25T01:49:00.295Z,59.23
2022-11-25T01:51:30.161Z,59.29
2022-11-25T01:53:58.263Z,59.24
2022-11-25T01:56:26.493Z,59.30
2022-11-25T01:58:53.269Z,59.20
2022-11-25T02:01:21.837Z,59.22
2022-11-25T02:03:49.444Z,59.14
2022-11-25T02:06:23.221Z,59.35
2022-11-25T02:08:52.138Z,59.33
2022-11-25T02:11:18.901Z,59.09
2022-11-25T02:13:46.476Z,58.98
2022-11-25T02:16:13.319Z,59.17
2022-11-25T02:18:40.432Z,59.29
2022-11-25T02:21:07.484Z,59.04
2022-11-25T02:23:48.689Z,59.15
2022-11-25T02:26:15.455Z,59.17
2022-11-25T02:28:42.557Z,59.03
2022-11-25T02:31:09.321Z,59.13
2022-11-25T02:33:36.408Z,59.21
2022-11-25T02:36:07.170Z,59.14
2022-11-25T02:38:49.596Z,59.21
2022-11-25T02:41:21.190Z,59.21
2022-11-25T02:43:48.229Z,59.09
2022-11-25T02:46:21.801Z,59.39
2022-11-25T02:51:35.829Z,59.02
2022-11-25T02:54:02.892Z,59.26
2022-11-25T02:56:31.661Z,59.26
2022-11-25T02:58:58.872Z,59.12
2022-11-25T03:01:25.679Z,59.08
2022-11-25T03:03:52.784Z,59.15
2022-11-25T03:06:19.527Z,59.27
2022-11-25T03:08:46.628Z,59.26
2022-11-25T03:11:13.321Z,59.13
2022-11-25T03:13:40.568Z,59.12
2022-11-25T03:16:07.968Z,58.88
2022-11-25T03:18:35.371Z,59.05
2022-11-25T03:21:02.269Z,58.90
2022-11-25T03:23:29.376Z,59.14
2022-11-25T03:25:56.092Z,59.20
2022-11-25T03:28:23.355Z,59.04
2022-11-25T03:30:50.136Z,59.33
2022-11-25T03:33:17.159Z,58.88
2022-11-25T03:35:43.843Z,59.07
2022-11-25T03:38:10.908Z,59.37
2022-11-25T03:40:37.691Z,59.16
2022-11-25T03:43:04.722Z,59.04
2022-11-25T03:45:31.499Z,59.37
2022-11-25T03:47:58.583Z,59.14
2022-11-25T03:50:25.324Z,59.13
2022-11-25T03:52:52.399Z,59.21
2022-11-25T03:55:19.139Z,59.26
2022-11-25T03:57:46.220Z,59.17
2022-11-25T04:00:13.285Z,59.20
2022-11-25T04:02:40.377Z,59.10
2022-11-25T04:05:07.520Z,59.25
2022-11-25T04:07:34.601Z,59.33
2022-11-25T04:10:01.387Z,58.94
2022-11-25T04:12:46.747Z,59.19
2022-11-25T04:15:14.671Z,59.31
2022-11-25T04:17:41.984Z,59.17
2022-11-25T04:20:09.603Z,59.12
2022-11-25T04:22:36.807Z,59.12
2022-11-25T04:25:04.083Z,59.10
2022-11-25T04:27:31.227Z,59.25
2022-11-25T04:29:57.944Z,59.13
2022-11-25T04:32:24.947Z,59.26
2022-11-25T04:34:52.074Z,59.14
2022-11-25T04:37:19.156Z,59.18
2022-11-25T04:39:45.902Z,59.25
2022-11-25T04:42:31.715Z,59.09
2022-11-25T04:45:21.298Z,59.29
2022-11-25T04:47:46.392Z,59.21
2022-11-25T04:50:18.845Z,59.19
2022-11-25T04:52:45.931Z,59.20
2022-11-25T04:55:12.778Z,58.93
2022-11-25T04:57:39.890Z,59.10
2022-11-25T05:00:07.224Z,59.08
2022-11-25T05:02:34.310Z,59.23
2022-11-25T05:05:01.171Z,59.17
2022-11-25T05:07:28.636Z,59.27
2022-11-25T05:09:55.468Z,59.15
2022-11-25T05:12:24.723Z,59.32
2022-11-25T05:14:51.448Z,58.87
2022-11-25T05:17:26.530Z,59.35
2022-11-25T05:19:53.254Z,58.84
2022-11-25T05:22:22.757Z,59.21
2022-11-25T05:24:49.492Z,58.95
2022-11-25T05:27:16.721Z,59.18
2022-11-25T05:29:43.765Z,59.06
2022-11-25T05:32:11.021Z,59.16
2022-11-25T05:34:38.168Z,58.97
2022-11-25T05:37:05.524Z,59.28
2022-11-25T05:39:32.261Z,58.93
2022-11-25T05:41:59.345Z,58.92
2022-11-25T05:44:26.104Z,59.22
2022-11-25T05:46:53.262Z,59.15
2022-11-25T05:49:20.936Z,58.92
2022-11-25T05:51:48.006Z,59.02
2022-11-25T05:54:14.775Z,59.26
2022-11-25T05:56:41.935Z,59.25
2022-11-25T05:59:08.683Z,59.06
2022-11-25T06:01:35.723Z,59.10
2022-11-25T06:04:03.219Z,59.01
2022-11-25T06:06:30.675Z,59.07
2022-11-25T06:08:57.423Z,59.07
2022-11-25T06:11:25.643Z,59.01
2022-11-25T06:13:52.412Z,59.18
2022-11-25T06:16:21.448Z,59.12
2022-11-25T06:18:48.516Z,58.93
2022-11-25T06:21:15.717Z,59.17
2022-11-25T06:23:44.742Z,58.87
2022-11-25T06:26:17.675Z,58.93
2022-11-25T06:28:44.567Z,59.13
2022-11-25T06:31:13.782Z,58.99
2022-11-25T06:33:40.666Z,59.09
2022-11-25T06:36:09.063Z,58.89
2022-11-25T06:38:35.794Z,58.73
2022-11-25T06:41:03.770Z,58.96
2022-11-25T06:43:30.650Z,59.09
2022-11-25T06:46:08.227Z,58.98
2022-11-25T06:48:35.505Z,59.14
2022-11-25T06:51:04.938Z,58.89
2022-11-25T06:53:32.021Z,58.96
2022-11-25T06:56:06.539Z,58.87
2022-11-25T06:58:36.170Z,58.75
2022-11-25T07:01:07.670Z,59.12
2022-11-25T07:03:35.729Z,58.98
2022-11-25T07:06:02.853Z,59.01
2022-11-25T07:08:33.911Z,59.14
2022-11-25T07:11:28.155Z,59.08
2022-11-25T07:13:56.373Z,58.96
2022-11-25T07:16:23.438Z,59.01
2022-11-25T07:18:50.246Z,58.80
2022-11-25T07:21:18.905Z,58.97
2022-11-25T07:23:45.962Z,59.04
2022-11-25T07:26:13.492Z,59.08
2022-11-25T07:28:40.338Z,59.00
2022-11-25T07:31:32.240Z,59.21
2022-11-25T07:34:02.035Z,58.95
2022-11-25T07:36:29.332Z,59.05
2022-11-25T07:38:57.874Z,59.08
2022-11-25T07:41:25.919Z,58.95
2022-11-25T07:43:59.957Z,58.81
2022-11-25T07:46:34.632Z,58.78
2022-11-25T07:49:06.386Z,58.83
2022-11-25T07:51:56.723Z,59.10
2022-11-25T07:54:23.787Z,59.13
2022-11-25T07:56:51.170Z,58.92
2022-11-25T07:59:20.302Z,58.86
2022-11-25T08:01:49.555Z,58.86
2022-11-25T08:04:20.061Z,59.06
2022-11-25T08:06:48.843Z,58.99
2022-11-25T08:09:19.491Z,59.01
2022-11-25T08:11:47.082Z,59.10
2022-11-25T08:14:14.117Z,58.89
2022-11-25T08:16:41.207Z,58.88
2022-11-25T08:19:09.888Z,59.01
2022-11-25T08:21:37.250Z,58.92
2022-11-25T08:24:04.177Z,59.01
2022-11-25T08:26:33.992Z,58.70
2022-11-25T08:29:00.921Z,58.73
2022-11-25T08:31:37.971Z,59.02
2022-11-25T08:34:05.893Z,58.78
2022-11-25T08:36:33.461Z,58.75
2022-11-25T08:39:01.072Z,58.72
2022-11-25T08:41:30.116Z,58.19
2022-11-25T08:43:57.617Z,57.96
2022-11-25T08:46:26.553Z,58.26
2022-11-25T08:48:53.638Z,58.36
2022-11-25T08:51:29.289Z,58.16
2022-11-25T08:53:55.923Z,58.40
2022-11-25T08:56:26.169Z,58.45
2022-11-25T08:58:54.133Z,58.85
2022-11-25T09:01:21.778Z,59.29
2022-11-25T09:03:49.919Z,59.40
2022-11-25T09:06:17.122Z,59.12
2022-11-25T09:08:44.656Z,59.39
2022-11-25T09:11:25.915Z,59.26
2022-11-25T09:13:52.967Z,58.99
2022-11-25T09:16:20.931Z,59.22
2022-11-25T09:18:52.360Z,59.10
2022-11-25T09:21:22.756Z,58.95
2022-11-25T09:23:50.692Z,58.78
2022-11-25T09:26:25.487Z,59.04
2022-11-25T09:28:52.516Z,59.15
2022-11-25T09:31:19.824Z,58.72
2022-11-25T09:33:46.726Z,58.94
2022-11-25T09:36:14.579Z,58.79
2022-11-25T09:38:44.145Z,58.88
2022-11-25T09:42:07.668Z,58.57
2022-11-25T09:45:30.701Z,58.60
2022-11-25T09:48:25.396Z,58.30
2022-11-25T09:51:27.669Z,58.21
2022-11-25T09:54:01.906Z,58.13
2022-11-25T09:56:35.653Z,57.90
2022-11-25T09:59:20.960Z,57.98
2022-11-25T10:01:54.479Z,57.74
2022-11-25T10:04:32.277Z,57.74
2022-11-25T10:07:01.312Z,57.80
2022-11-25T10:09:30.443Z,57.83
2022-11-25T10:12:01.042Z,58.00
2022-11-25T10:14:32.775Z,58.13
2022-11-25T10:17:05.651Z,58.19
2022-11-25T10:19:51.518Z,57.87
2022-11-25T10:22:30.991Z,57.62
2022-11-25T10:25:02.614Z,57.53
2022-11-25T10:27:41.429Z,57.66
2022-11-25T10:30:19.113Z,57.46
2022-11-25T10:33:03.981Z,57.62
2022-11-25T10:35:47.282Z,57.48
2022-11-25T10:38:19.396Z,57.52
2022-11-25T10:40:48.599Z,57.65
2022-11-25T10:43:15.370Z,57.28
2022-11-25T10:45:49.354Z,57.27
2022-11-25T10:48:25.515Z,57.23
2022-11-25T10:51:01.792Z,57.59
2022-11-25T10:53:30.811Z,57.18
2022-11-25T10:55:57.860Z,57.39
2022-11-25T10:58:35.398Z,57.14
2022-11-25T11:01:09.583Z,57.55
2022-11-25T11:03:36.414Z,57.35
2022-11-25T11:06:03.531Z,57.40
2022-11-25T11:08:40.157Z,57.17
2022-11-25T11:11:11.302Z,57.33
2022-11-25T11:13:38.125Z,57.47
2022-11-25T11:16:20.586Z,57.25
2022-11-25T11:18:47.378Z,57.28
2022-11-25T11:21:34.547Z,57.22
2022-11-25T11:24:01.909Z,57.14
2022-11-25T11:26:30.323Z,57.24
2022-11-25T11:29:00.533Z,57.04
2022-11-25T11:31:36.428Z,57.21
2022-11-25T11:34:29.694Z,57.09
2022-11-25T11:37:02.672Z,56.99
2022-11-25T11:39:47.466Z,57.19
2022-11-25T11:42:46.360Z,56.96
2022-11-25T11:45:25.117Z,56.96
2022-11-25T11:48:01.310Z,56.77
2022-11-25T11:50:45.691Z,56.90
2022-11-25T11:53:30.893Z,56.66
2022-11-25T11:56:34.080Z,56.64
2022-11-25T11:59:04.578Z,56.69
2022-11-25T12:01:50.178Z,56.48
2022-11-25T12:04:20.426Z,56.57
2022-11-25T12:06:56.783Z,56.42
2022-11-25T12:09:23.911Z,56.53
2022-11-25T12:11:53.666Z,56.58
2022-11-25T12:14:43.227Z,56.53
2022-11-25T12:17:23.218Z,56.21
2022-11-25T12:20:07.748Z,56.38
2022-11-25T12:22:36.962Z,56.17
2022-11-25T12:25:19.566Z,56.63
2022-11-25T12:27:46.278Z,56.21
2022-11-25T12:30:16.262Z,56.33
2022-11-25T12:33:12.813Z,56.34
2022-11-25T12:35:50.398Z,56.33
2022-11-25T12:38:26.197Z,56.26
2022-11-25T12:41:11.649Z,56.41
2022-11-25T12:43:51.283Z,56.07
2022-11-25T12:46:44.502Z,56.24
2022-11-25T12:49:28.430Z,56.11
2022-11-25T12:52:33.260Z,56.06
2022-11-25T12:55:11.475Z,56.11
2022-11-25T12:57:56.976Z,55.94
2022-11-25T13:00:42.422Z,56.23
2022-11-25T13:03:47.151Z,56.17
2022-11-25T13:06:53.957Z,56.10
2022-11-25T13:09:48.474Z,55.99
2022-11-25T13:12:37.316Z,56.06
2022-11-25T13:15:05.140Z,56.22
2022-11-25T13:17:33.231Z,56.08
2022-11-25T13:20:25.433Z,56.04
2022-11-25T13:23:18.022Z,55.84
2022-11-25T13:25:46.558Z,56.06
2022-11-25T13:28:36.528Z,56.27
2022-11-25T13:31:13.482Z,55.98
2022-11-25T13:33:43.445Z,55.98
2022-11-25T13:36:16.437Z,56.37
2022-11-25T13:38:49.429Z,56.01
2022-11-25T13:41:16.487Z,56.13
2022-11-25T13:43:52.560Z,56.03
2022-11-25T13:46:32.337Z,56.36
2022-11-25T13:48:59.132Z,56.06
2022-11-25T13:51:27.004Z,56.15
2022-11-25T13:53:58.524Z,56.29
2022-11-25T13:56:30.399Z,56.18
2022-11-25T13:59:13.801Z,56.14
2022-11-25T14:01:42.055Z,56.20
2022-11-25T14:04:09.262Z,56.19
2022-11-25T14:06:59.268Z,56.15
2022-11-25T14:09:50.080Z,56.33
2022-11-25T14:12:41.911Z,56.27
2022-11-25T14:15:29.725Z,56.24
2022-11-25T14:18:43.012Z,56.43
2022-11-25T14:21:40.273Z,56.41
2022-11-25T14:24:23.145Z,56.46
2022-11-25T14:26:53.020Z,56.15
2022-11-25T14:29:32.367Z,56.41
2022-11-25T14:32:05.587Z,56.33
2022-11-25T14:34:35.493Z,56.47
2022-11-25T14:37:10.785Z,56.41
2022-11-25T14:39:42.807Z,56.47
2022-11-25T14:42:10.753Z,56.40
2022-11-25T14:44:42.444Z,56.45
2022-11-25T14:47:09.253Z,56.63
2022-11-25T14:49:55.711Z,56.38
2022-11-25T14:52:35.510Z,56.69
2022-11-25T14:55:03.761Z,56.56
2022-11-25T14:57:33.603Z,56.78
2022-11-25T15:00:17.876Z,56.86
2022-11-25T15:02:57.110Z,56.67
2022-11-25T15:05:34.942Z,56.63
2022-11-25T15:08:04.611Z,56.54
2022-11-25T15:10:37.173Z,56.57
2022-11-25T15:13:11.900Z,56.50
2022-11-25T15:15:38.959Z,56.47
2022-11-25T15:18:10.315Z,56.72
2022-11-25T15:20:37.526Z,56.75
2022-11-25T15:23:04.489Z,56.93
2022-11-25T15:25:31.592Z,56.51
2022-11-25T15:27:58.692Z,56.93
2022-11-25T15:30:27.595Z,57.01
2022-11-25T15:32:54.332Z,56.92
2022-11-25T15:35:23.639Z,56.79
2022-11-25T15:37:50.511Z,56.95
2022-11-25T15:40:44.347Z,56.98
2022-11-25T15:43:24.748Z,57.42
2022-11-25T15:45:54.133Z,57.32
2022-11-25T15:48:31.907Z,57.49
2022-11-25T15:51:06.142Z,57.52
2022-11-25T15:53:37.066Z,57.41
2022-11-25T15:56:05.924Z,57.43
2022-11-25T15:58:32.831Z,57.61
2022-11-25T16:01:01.869Z,57.46
2022-11-25T16:03:31.459Z,57.22
2022-11-25T16:05:58.944Z,57.46
2022-11-25T16:08:28.155Z,57.51
2022-11-25T16:11:00.452Z,57.32
2022-11-25T16:13:28.979Z,57.14
2022-11-25T16:16:03.252Z,57.17
2022-11-25T16:18:50.368Z,56.92
2022-11-25T16:21:45.036Z,57.56
2022-11-25T16:24:24.031Z,57.43
2022-11-25T16:26:53.631Z,57.41
2022-11-25T16:29:38.940Z,57.30
2022-11-25T16:32:17.223Z,57.31
2022-11-25T16:34:44.544Z,57.44
2022-11-25T16:37:11.575Z,57.20
2022-11-25T16:39:39.415Z,57.35
2022-11-25T16:42:07.007Z,57.55
2022-11-25T16:44:34.535Z,57.46
2022-11-25T16:47:02.062Z,57.34
2022-11-25T16:49:30.079Z,57.60
2022-11-25T16:51:57.191Z,57.45
2022-11-25T16:54:23.957Z,57.40
2022-11-25T16:56:53.445Z,57.26
2022-11-25T16:59:34.258Z,57.71
2022-11-25T17:02:01.728Z,57.35
2022-11-25T17:04:28.685Z,57.25
2022-11-25T17:07:30.578Z,57.19
2022-11-25T17:09:44.207Z,57.24
2022-11-25T17:12:15.211Z,57.19
2022-11-25T17:14:42.641Z,57.10
2022-11-25T17:17:10.541Z,57.24
2022-11-25T17:19:37.765Z,57.46
2022-11-25T17:22:15.122Z,57.48
2022-11-25T17:24:41.972Z,57.37
2022-11-25T17:27:10.282Z,57.04
2022-11-25T17:29:39.511Z,57.29
2022-11-25T17:32:07.165Z,57.33
2022-11-25T17:34:38.103Z,57.48
2022-11-25T17:37:17.239Z,57.34
2022-11-25T17:39:44.437Z,57.39
2022-11-25T17:42:15.933Z,57.22
2022-11-25T17:44:42.880Z,57.28
2022-11-25T17:47:12.166Z,57.31
2022-11-25T17:49:38.947Z,57.50
2022-11-25T17:52:06.523Z,57.42
2022-11-25T17:54:33.331Z,57.37
2022-11-25T17:57:00.407Z,57.40
2022-11-25T17:59:31.121Z,57.37
2022-11-25T18:02:01.182Z,57.43
2022-11-25T18:04:31.052Z,57.46
2022-11-25T18:06:58.129Z,57.34
2022-11-25T18:09:24.888Z,57.63
2022-11-25T18:11:56.989Z,57.54
2022-11-25T18:14:28.496Z,57.44
2022-11-25T18:16:55.988Z,57.52
2022-11-25T18:19:22.870Z,57.49
2022-11-25T18:21:50.006Z,57.43
2022-11-25T18:24:16.803Z,57.43
2022-11-25T18:26:47.269Z,57.50
2022-11-25T18:29:23.134Z,57.57
2022-11-25T18:31:51.146Z,57.60
2022-11-25T18:34:18.034Z,57.57
2022-11-25T18:36:45.212Z,57.42
2022-11-25T18:39:12.166Z,57.45
2022-11-25T18:41:39.495Z,57.39
2022-11-25T18:44:07.182Z,57.48
2022-11-25T18:46:37.315Z,57.59
2022-11-25T18:49:12.526Z,57.53
2022-11-25T18:51:40.506Z,57.58
2022-11-25T18:54:08.114Z,57.78
2022-11-25T18:56:35.755Z,57.72
2022-11-25T18:59:02.513Z,57.79
2022-11-25T19:01:29.806Z,57.69
2022-11-25T19:03:56.762Z,57.71
2022-11-25T19:06:23.779Z,58.03
2022-11-25T19:08:53.273Z,57.84
2022-11-25T19:11:28.824Z,57.79
2022-11-25T19:14:02.217Z,58.00
2022-11-25T19:16:29.363Z,57.83
2022-11-25T19:18:56.241Z,57.79
2022-11-25T19:21:23.353Z,57.96
2022-11-25T19:23:50.154Z,57.81
2022-11-25T19:26:23.522Z,57.85
2022-11-25T19:28:51.638Z,57.81
2022-11-25T19:31:18.760Z,57.88
2022-11-25T19:33:46.843Z,57.82
2022-11-25T19:36:26.896Z,57.92
2022-11-25T19:38:54.050Z,57.99
2022-11-25T19:41:21.196Z,57.77
2022-11-25T19:43:48.009Z,57.89
2022-11-25T19:46:29.664Z,57.94
2022-11-25T19:48:58.932Z,57.93
2022-11-25T19:51:26.248Z,58.01
2022-11-25T19:53:53.063Z,58.14
2022-11-25T19:56:23.704Z,57.78
2022-11-25T19:58:50.970Z,57.97
2022-11-25T20:01:20.821Z,57.95
2022-11-25T20:03:48.156Z,58.02
2022-11-25T20:06:16.750Z,57.87
2022-11-25T20:08:43.615Z,57.87
2022-11-25T20:11:14.794Z,57.92
2022-11-25T20:13:41.844Z,57.88
2022-11-25T20:16:22.890Z,57.72
2022-11-25T20:18:50.900Z,57.91
2022-11-25T20:21:26.231Z,58.04
2022-11-25T20:23:53.008Z,57.96
2022-11-25T20:26:31.761Z,58.23
2022-11-25T20:28:58.505Z,58.01
2022-11-25T20:31:30.153Z,57.88
2022-11-25T20:33:57.529Z,57.91
2022-11-25T20:36:28.342Z,58.01
2022-11-25T20:38:56.073Z,57.76
2022-11-25T20:41:27.750Z,57.81
2022-11-25T20:43:54.995Z,57.75
2022-11-25T20:46:23.975Z,57.82
2022-11-25T20:48:54.612Z,57.89
2022-11-25T20:51:22.524Z,57.84
2022-11-25T20:53:53.863Z,57.88
2022-11-25T20:56:22.045Z,57.88
2022-11-25T20:58:48.813Z,58.04
2022-11-25T21:01:16.963Z,58.11
2022-11-25T21:03:44.424Z,58.02
2022-11-25T21:06:21.608Z,57.93
2022-11-25T21:08:50.287Z,58.03
2022-11-25T21:11:17.428Z,57.52
2022-11-25T21:13:44.343Z,57.94
2022-11-25T21:16:11.550Z,57.64
2022-11-25T21:18:38.624Z,57.95
2022-11-25T21:21:06.291Z,57.93
2022-11-25T21:23:36.478Z,57.98
2022-11-25T21:26:10.262Z,57.98
2022-11-25T21:28:40.607Z,57.74
2022-11-25T21:31:11.324Z,57.92
2022-11-25T21:33:38.183Z,57.79
2022-11-25T21:36:05.567Z,57.73
2022-11-25T21:38:32.327Z,57.97
2022-11-25T21:40:59.440Z,58.07
2022-11-25T21:43:31.872Z,57.94
2022-11-25T21:46:04.787Z,57.96
2022-11-25T21:48:31.653Z,57.79
2022-11-25T21:50:58.918Z,57.72
2022-11-25T21:53:25.744Z,57.96
2022-11-25T21:55:52.828Z,57.86
2022-11-25T21:58:20.362Z,57.75
2022-11-25T22:00:49.917Z,57.98
2022-11-25T22:03:17.458Z,58.10
2022-11-25T22:05:46.053Z,57.63
2022-11-25T22:08:12.807Z,57.72
2022-11-25T22:10:40.955Z,57.89
2022-11-25T22:13:09.127Z,57.94
2022-11-25T22:15:36.396Z,57.84
2022-11-25T22:18:03.165Z,57.64
2022-11-25T22:20:33.474Z,57.69
2022-11-25T22:23:00.845Z,57.61
2022-11-25T22:25:29.082Z,58.01
2022-11-25T22:27:55.844Z,57.61
2022-11-25T22:30:23.053Z,57.89
2022-11-25T22:32:56.407Z,57.81
2022-11-25T22:35:23.723Z,58.02
2022-11-25T22:37:54.949Z,57.89
2022-11-25T22:40:22.612Z,57.64
2022-11-25T22:42:50.246Z,57.71
2022-11-25T22:45:44.250Z,57.74
2022-11-25T22:48:15.169Z,57.95
2022-11-25T22:50:42.222Z,57.83
2022-11-25T22:53:13.301Z,57.79
2022-11-25T22:55:40.467Z,57.78
2022-11-25T22:58:07.262Z,57.85
2022-11-25T23:00:37.336Z,57.64
2022-11-25T23:03:08.063Z,57.82
2022-11-25T23:05:36.112Z,57.60
2022-11-25T23:08:38.895Z,58.12
2022-11-25T23:11:06.275Z,57.87
2022-11-25T23:13:33.045Z,57.84
2022-11-25T23:16:03.509Z,57.70
2022-11-25T23:18:38.959Z,58.07
2022-11-25T23:21:07.244Z,57.91
2022-11-25T23:23:34.006Z,57.91
2022-11-25T23:26:01.098Z,57.83
2022-11-25T23:28:27.897Z,57.85
2022-11-25T23:30:56.346Z,57.86
2022-11-25T23:33:37.065Z,57.76
2022-11-25T23:36:09.225Z,57.81
2022-11-25T23:38:38.574Z,57.62
2022-11-25T23:41:05.846Z,57.85
2022-11-25T23:43:32.570Z,57.79
2022-11-25T23:45:59.597Z,57.79
2022-11-25T23:48:28.303Z,57.79
2022-11-25T23:50:55.542Z,57.83
2022-11-25T23:53:28.569Z,57.97
2022-11-25T23:55:55.673Z,57.81
2022-11-25T23:58:23.340Z,57.92
